createdAt,value
2023-01-13T00:00:14.663Z,0.60
2023-01-13T00:02:43.856Z,0.90
2023-01-13T00:05:11.101Z,0.57
2023-01-13T00:07:41.365Z,0.68
2023-01-13T00:10:10.663Z,0.50
2023-01-13T00:12:41.616Z,1.20
2023-01-13T00:15:09.537Z,0.50
2023-01-13T00:17:36.294Z,0.47
2023-01-13T00:20:03.369Z,0.93
2023-01-13T00:22:33.215Z,0.82
2023-01-13T00:25:01.543Z,0.80
2023-01-13T00:27:29.171Z,0.45
2023-01-13T00:29:55.698Z,1.20
2023-01-13T00:32:24.576Z,1.00
2023-01-13T00:34:53.327Z,0.43
2023-01-13T00:37:19.893Z,0.60
2023-01-13T00:39:46.516Z,0.32
2023-01-13T00:42:31.643Z,0.50
2023-01-13T00:44:58.226Z,0.60
2023-01-13T00:47:24.740Z,0.40
2023-01-13T00:49:51.330Z,0.50
2023-01-13T00:52:17.798Z,0.38
2023-01-13T00:54:46.830Z,0.55
2023-01-13T00:57:15.265Z,0.60
2023-01-13T00:59:41.837Z,0.38
2023-01-13T01:02:10.780Z,0.57
2023-01-13T01:04:40.418Z,0.50
2023-01-13T01:07:06.972Z,0.30
2023-01-13T01:09:34.706Z,0.45
2023-01-13T01:12:01.445Z,0.50
2023-01-13T01:14:28.356Z,0.93
2023-01-13T01:16:54.817Z,0.63
2023-01-13T01:19:21.421Z,0.40
2023-01-13T01:21:47.958Z,0.40
2023-01-13T01:24:16.474Z,0.30
2023-01-13T01:26:45.197Z,0.40
2023-01-13T01:29:14.180Z,0.40
2023-01-13T01:31:40.778Z,0.55
2023-01-13T01:34:07.660Z,0.20
2023-01-13T01:36:35.378Z,0.55
2023-01-13T01:39:02.592Z,0.38
2023-01-13T01:41:33.761Z,0.32
2023-01-13T01:44:28.880Z,0.47
2023-01-13T01:46:56.894Z,0.63
2023-01-13T01:49:31.842Z,0.20
2023-01-13T01:52:21.153Z,0.20
2023-01-13T01:54:58.572Z,0.50
2023-01-13T01:57:32.886Z,0.60
2023-01-13T02:00:01.020Z,0.50
2023-01-13T02:02:30.193Z,0.40
2023-01-13T02:04:57.479Z,0.20
2023-01-13T02:07:30.462Z,0.40
2023-01-13T02:09:59.295Z,0.30
2023-01-13T02:12:30.119Z,0.40
2023-01-13T02:15:00.899Z,0.30
2023-01-13T02:17:32.959Z,0.32
2023-01-13T02:20:26.888Z,0.30
2023-01-13T02:23:31.132Z,0.40
2023-01-13T02:26:16.588Z,0.40
2023-01-13T02:29:10.931Z,0.82
2023-01-13T02:31:42.882Z,0.55
2023-01-13T02:34:11.325Z,0.30
2023-01-13T02:36:56.776Z,0.30
2023-01-13T02:39:29.877Z,0.30
2023-01-13T02:42:26.332Z,0.20
2023-01-13T02:45:01.211Z,0.40
2023-01-13T02:47:30.606Z,1.05
2023-01-13T02:50:04.476Z,0.28
2023-01-13T02:52:42.975Z,0.63
2023-01-13T02:55:18.127Z,0.52
2023-01-13T02:57:45.949Z,0.63
2023-01-13T03:00:14.541Z,0.22
2023-01-13T03:02:40.998Z,0.25
2023-01-13T03:05:07.711Z,0.45
2023-01-13T03:08:17.854Z,0.30
2023-01-13T03:10:52.474Z,0.85
2023-01-13T03:13:53.201Z,0.32
2023-01-13T03:16:38.460Z,0.25
2023-01-13T03:19:23.643Z,0.43
2023-01-13T03:22:01.831Z,0.32
2023-01-13T03:24:39.501Z,0.22
2023-01-13T03:27:12.621Z,0.30
2023-01-13T03:29:46.153Z,0.38
2023-01-13T03:32:18.541Z,0.20
2023-01-13T03:35:11.904Z,0.35
2023-01-13T03:37:46.043Z,0.17
2023-01-13T03:40:15.614Z,0.10
2023-01-13T03:43:07.507Z,0.30
2023-01-13T03:45:36.385Z,0.22
2023-01-13T03:48:12.276Z,0.20
2023-01-13T03:50:47.890Z,0.40
2023-01-13T03:53:20.855Z,0.30
2023-01-13T03:55:54.144Z,0.20
2023-01-13T03:58:33.673Z,0.28
2023-01-13T04:01:15.120Z,0.25
2023-01-13T04:03:54.081Z,0.30
2023-01-13T04:06:55.482Z,0.20
2023-01-13T04:09:46.648Z,0.30
2023-01-13T04:12:20.426Z,0.28
2023-01-13T04:14:49.766Z,0.20
2023-01-13T04:17:16.738Z,0.45
2023-01-13T04:19:43.124Z,0.30
2023-01-13T04:22:09.805Z,0.35
2023-01-13T04:24:37.116Z,0.20
2023-01-13T04:27:04.117Z,0.22
2023-01-13T04:29:30.945Z,0.10
2023-01-13T04:32:02.219Z,0.20
2023-01-13T04:34:28.653Z,0.25
2023-01-13T04:36:55.048Z,0.20
2023-01-13T04:39:21.445Z,0.30
2023-01-13T04:42:04.873Z,0.38
2023-01-13T04:44:35.121Z,0.25
2023-01-13T04:47:02.627Z,0.35
2023-01-13T04:49:31.869Z,0.20
2023-01-13T04:51:58.446Z,0.30
2023-01-13T04:54:24.816Z,0.63
2023-01-13T04:56:51.286Z,0.50
2023-01-13T04:59:20.156Z,0.20
2023-01-13T05:01:46.585Z,0.30
2023-01-13T05:04:15.411Z,0.10
2023-01-13T05:06:41.811Z,0.10
2023-01-13T05:09:11.586Z,0.50
2023-01-13T05:11:56.650Z,0.30
2023-01-13T05:14:41.439Z,0.30
2023-01-13T05:17:09.611Z,0.30
2023-01-13T05:19:40.259Z,0.40
2023-01-13T05:22:28.643Z,0.30
2023-01-13T05:25:13.428Z,0.13
2023-01-13T05:27:42.892Z,0.43
2023-01-13T05:30:10.251Z,0.30
2023-01-13T05:32:36.649Z,0.25
2023-01-13T05:35:04.052Z,0.47
2023-01-13T05:37:30.654Z,0.40
2023-01-13T05:40:15.671Z,0.95
2023-01-13T05:43:00.501Z,0.10
2023-01-13T05:45:28.182Z,0.28
2023-01-13T05:47:54.571Z,0.20
2023-01-13T05:50:20.979Z,0.20
2023-01-13T05:52:48.596Z,0.30
2023-01-13T05:55:15.061Z,0.22
2023-01-13T05:57:44.604Z,0.20
2023-01-13T06:00:11.562Z,0.30
2023-01-13T06:02:38.001Z,0.30
2023-01-13T06:05:04.683Z,0.70
2023-01-13T06:07:31.083Z,0.30
2023-01-13T06:09:57.461Z,0.20
2023-01-13T06:12:23.812Z,0.35
2023-01-13T06:14:50.237Z,0.20
2023-01-13T06:17:16.881Z,0.35
2023-01-13T06:19:43.230Z,0.28
2023-01-13T06:22:22.725Z,0.40
2023-01-13T06:24:50.169Z,0.15
2023-01-13T06:27:17.830Z,0.40
2023-01-13T06:29:44.645Z,0.30
2023-01-13T06:32:36.121Z,0.38
2023-01-13T06:35:08.904Z,0.40
2023-01-13T06:37:36.867Z,0.13
2023-01-13T06:40:06.795Z,0.32
2023-01-13T06:42:57.823Z,0.20
2023-01-13T06:45:29.028Z,0.50
2023-01-13T06:47:59.734Z,0.47
2023-01-13T06:50:27.783Z,0.30
2023-01-13T06:52:54.343Z,0.40
2023-01-13T06:55:21.295Z,0.30
2023-01-13T06:57:52.531Z,0.30
2023-01-13T07:00:21.822Z,0.30
2023-01-13T07:02:50.604Z,0.50
2023-01-13T07:05:18.751Z,0.50
2023-01-13T07:07:45.232Z,0.35
2023-01-13T07:10:14.218Z,0.50
2023-01-13T07:13:01.786Z,0.30
2023-01-13T07:15:28.215Z,0.90
2023-01-13T07:17:58.724Z,0.65
2023-01-13T07:20:25.118Z,1.27
2023-01-13T07:22:56.621Z,0.80
2023-01-13T07:25:23.526Z,0.60
2023-01-13T07:27:52.500Z,0.40
2023-01-13T07:30:19.106Z,0.32
2023-01-13T07:32:45.691Z,0.55
2023-01-13T07:35:12.221Z,0.60
2023-01-13T07:37:39.472Z,0.43
2023-01-13T07:40:06.602Z,0.40
2023-01-13T07:42:53.109Z,0.80
2023-01-13T07:45:19.545Z,0.98
2023-01-13T07:47:48.383Z,0.68
2023-01-13T07:50:15.976Z,0.68
2023-01-13T07:52:42.398Z,0.77
2023-01-13T07:55:11.337Z,0.40
2023-01-13T07:57:38.013Z,0.68
2023-01-13T08:00:05.278Z,0.57
2023-01-13T08:02:31.766Z,0.60
2023-01-13T08:04:58.477Z,0.40
2023-01-13T08:07:24.904Z,0.50
2023-01-13T08:09:51.438Z,0.32
2023-01-13T08:12:37.469Z,0.28
2023-01-13T08:15:05.460Z,0.43
2023-01-13T08:17:34.381Z,0.40
2023-01-13T08:20:01.695Z,0.40
2023-01-13T08:22:28.063Z,0.50
2023-01-13T08:24:54.479Z,0.35
2023-01-13T08:27:21.065Z,0.13
2023-01-13T08:29:47.594Z,0.60
2023-01-13T08:32:13.932Z,0.60
2023-01-13T08:34:42.768Z,0.77
2023-01-13T08:37:09.147Z,0.40
2023-01-13T08:39:37.988Z,0.93
2023-01-13T08:42:05.286Z,1.15
2023-01-13T08:44:32.146Z,0.82
2023-01-13T08:46:59.111Z,0.60
2023-01-13T08:49:27.294Z,0.65
2023-01-13T08:51:54.013Z,1.55
2023-01-13T08:54:25.263Z,1.00
2023-01-13T08:56:51.774Z,1.27
2023-01-13T08:59:19.675Z,2.42
2023-01-13T09:01:48.390Z,1.90
2023-01-13T09:04:20.336Z,1.63
2023-01-13T09:06:52.434Z,1.85
2023-01-13T09:09:22.305Z,1.25
2023-01-13T09:12:09.903Z,0.90
2023-01-13T09:14:39.039Z,0.90
2023-01-13T09:17:07.294Z,0.80
2023-01-13T09:19:34.132Z,0.85
2023-01-13T09:22:00.773Z,0.82
2023-01-13T09:24:27.229Z,1.23
2023-01-13T09:26:53.803Z,1.17
2023-01-13T09:29:20.779Z,1.10
2023-01-13T09:31:47.915Z,1.00
2023-01-13T09:34:58.517Z,1.45
2023-01-13T09:37:25.989Z,0.75
2023-01-13T09:39:54.934Z,1.30
2023-01-13T09:42:53.864Z,1.10
2023-01-13T09:45:27.558Z,1.10
2023-01-13T09:48:02.759Z,1.30
2023-01-13T09:51:00.036Z,1.15
2023-01-13T09:53:32.393Z,1.20
2023-01-13T09:58:25.310Z,1.50
2023-01-13T10:01:13.208Z,0.77
2023-01-13T10:03:42.149Z,0.80
2023-01-13T10:06:18.100Z,0.77
2023-01-13T10:08:47.100Z,1.10
2023-01-13T10:11:38.849Z,0.90
2023-01-13T10:14:18.127Z,0.67
2023-01-13T10:16:47.455Z,1.45
2023-01-13T10:19:29.720Z,1.00
2023-01-13T10:22:11.337Z,1.30
2023-01-13T10:25:01.886Z,0.70
2023-01-13T10:27:39.838Z,1.88
2023-01-13T10:30:21.201Z,1.33
2023-01-13T10:32:57.274Z,9.52
2023-01-13T10:35:48.860Z,2.88
2023-01-13T10:38:42.887Z,1.30
2023-01-13T10:41:15.568Z,1.45
2023-01-13T10:44:07.227Z,1.23
2023-01-13T10:46:49.647Z,0.70
2023-01-13T10:49:36.092Z,1.15
2023-01-13T10:52:04.377Z,1.20
2023-01-13T10:54:31.477Z,1.70
2023-01-13T10:57:25.290Z,2.22
2023-01-13T10:59:53.060Z,2.60
2023-01-13T11:02:32.298Z,2.47
2023-01-13T11:05:03.027Z,1.88
2023-01-13T11:07:32.852Z,1.10
2023-01-13T11:10:10.361Z,0.90
2023-01-13T11:13:13.069Z,1.33
2023-01-13T11:15:46.800Z,1.63
2023-01-13T11:18:24.320Z,1.75
2023-01-13T11:20:51.587Z,1.00
2023-01-13T11:23:32.779Z,1.55
2023-01-13T11:26:10.691Z,1.55
2023-01-13T11:28:49.681Z,1.02
2023-01-13T11:31:25.517Z,2.42
2023-01-13T11:34:05.149Z,1.33
2023-01-13T11:36:42.965Z,0.73
2023-01-13T11:39:21.368Z,1.20
2023-01-13T11:42:15.923Z,1.58
2023-01-13T11:44:49.940Z,1.17
2023-01-13T11:47:21.164Z,1.10
2023-01-13T11:49:49.914Z,1.70
2023-01-13T11:52:23.507Z,0.98
2023-01-13T11:55:16.632Z,0.57
2023-01-13T11:57:55.309Z,1.00
2023-01-13T12:00:32.629Z,1.17
2023-01-13T12:03:24.265Z,0.80
2023-01-13T12:06:05.515Z,1.10
2023-01-13T12:09:10.398Z,1.00
2023-01-13T12:12:07.063Z,1.70
2023-01-13T12:15:10.837Z,0.70
2023-01-13T12:17:57.518Z,1.20
2023-01-13T12:20:28.009Z,1.23
2023-01-13T12:23:02.663Z,0.90
2023-01-13T12:25:39.585Z,1.35
2023-01-13T12:28:19.241Z,0.75
2023-01-13T12:30:48.160Z,0.75
2023-01-13T12:33:42.529Z,1.17
2023-01-13T12:36:28.068Z,1.00
2023-01-13T12:39:06.481Z,0.82
2023-01-13T12:42:05.459Z,1.00
2023-01-13T12:44:31.944Z,1.38
2023-01-13T12:47:01.073Z,0.98
2023-01-13T12:49:33.636Z,0.75
2023-01-13T12:52:08.863Z,0.90
2023-01-13T12:54:42.711Z,0.60
2023-01-13T12:57:23.302Z,0.50
2023-01-13T13:00:04.917Z,0.95
2023-01-13T13:02:42.130Z,0.60
2023-01-13T13:05:14.421Z,0.77
2023-01-13T13:10:21.116Z,0.63
2023-01-13T13:13:11.477Z,0.82
2023-01-13T13:15:38.792Z,1.05
2023-01-13T13:18:06.145Z,0.77
2023-01-13T13:21:09.103Z,1.05
2023-01-13T13:23:47.973Z,1.10
2023-01-13T13:26:15.514Z,0.90
2023-01-13T13:29:04.364Z,1.02
2023-01-13T13:32:17.400Z,0.98
2023-01-13T13:38:08.552Z,0.75
2023-01-13T13:41:01.063Z,0.73
2023-01-13T13:43:48.685Z,1.10
2023-01-13T13:46:41.373Z,0.77
2023-01-13T13:51:40.773Z,0.90
2023-01-13T13:54:22.664Z,0.57
2023-01-13T13:56:50.801Z,1.15
2023-01-13T13:59:24.189Z,1.05
2023-01-13T14:02:01.053Z,0.80
2023-01-13T14:04:32.993Z,1.33
2023-01-13T14:07:25.594Z,1.17
2023-01-13T14:09:56.377Z,1.23
2023-01-13T14:12:30.283Z,0.80
2023-01-13T14:14:57.643Z,0.50
2023-01-13T14:17:26.576Z,1.05
2023-01-13T14:20:06.084Z,0.50
2023-01-13T14:22:35.109Z,0.60
2023-01-13T14:25:21.571Z,0.82
2023-01-13T14:27:50.244Z,1.10
2023-01-13T14:30:18.685Z,0.93
2023-01-13T14:32:48.011Z,1.33
2023-01-13T14:35:17.938Z,1.80
2023-01-13T14:37:49.391Z,1.55
2023-01-13T14:40:36.098Z,0.90
2023-01-13T14:43:04.258Z,0.95
2023-01-13T14:45:33.073Z,1.42
2023-01-13T14:48:01.005Z,0.90
2023-01-13T14:50:32.701Z,1.50
2023-01-13T14:53:00.649Z,0.95
2023-01-13T14:55:28.969Z,0.90
2023-01-13T14:58:23.285Z,0.70
2023-01-13T15:00:51.538Z,0.93
2023-01-13T15:03:20.305Z,1.17
2023-01-13T15:05:49.295Z,1.13
2023-01-13T15:08:17.064Z,1.08
2023-01-13T15:10:48.315Z,1.05
2023-01-13T15:13:50.770Z,1.92
2023-01-13T15:16:27.440Z,1.25
2023-01-13T15:18:56.099Z,1.40
2023-01-13T15:21:23.313Z,3.17
2023-01-13T15:23:52.133Z,4.10
2023-01-13T15:26:20.448Z,3.38
2023-01-13T15:28:47.652Z,2.10
2023-01-13T15:31:14.711Z,1.85
2023-01-13T15:33:42.253Z,1.50
2023-01-13T15:36:30.671Z,1.25
2023-01-13T15:38:58.506Z,1.50
2023-01-13T15:41:43.846Z,1.52
2023-01-13T15:44:33.447Z,1.55
2023-01-13T15:47:03.721Z,1.92
2023-01-13T15:49:37.501Z,1.13
2023-01-13T15:52:19.902Z,1.35
2023-01-13T15:54:49.068Z,1.30
2023-01-13T15:57:30.330Z,1.42
2023-01-13T16:00:00.533Z,1.27
2023-01-13T16:02:31.548Z,1.25
2023-01-13T16:04:57.968Z,2.25
2023-01-13T16:07:25.600Z,1.60
2023-01-13T16:09:52.412Z,1.55
2023-01-13T16:12:19.079Z,2.05
2023-01-13T16:14:45.594Z,1.27
2023-01-13T16:17:18.186Z,1.58
2023-01-13T16:19:48.528Z,2.63
2023-01-13T16:22:16.176Z,1.42
2023-01-13T16:24:43.246Z,1.80
2023-01-13T16:27:21.151Z,1.77
2023-01-13T16:29:48.176Z,2.05
2023-01-13T16:32:18.178Z,1.92
2023-01-13T16:34:44.590Z,2.03
2023-01-13T16:37:23.452Z,1.17
2023-01-13T16:39:54.047Z,1.92
2023-01-13T16:42:20.881Z,1.73
2023-01-13T16:44:48.526Z,1.35
2023-01-13T16:47:16.936Z,1.67
2023-01-13T16:49:44.235Z,1.52
2023-01-13T16:52:10.831Z,1.75
2023-01-13T16:54:37.281Z,1.70
2023-01-13T16:57:03.850Z,1.58
2023-01-13T16:59:30.414Z,2.47
2023-01-13T17:01:57.360Z,1.40
2023-01-13T17:04:26.006Z,2.67
2023-01-13T17:07:00.266Z,3.63
2023-01-13T17:09:28.583Z,8.60
2023-01-13T17:11:55.697Z,6.93
2023-01-13T17:14:23.497Z,4.25
2023-01-13T17:16:52.917Z,3.63
2023-01-13T17:19:20.867Z,3.17
2023-01-13T17:21:52.046Z,5.93
2023-01-13T17:24:18.648Z,3.65
2023-01-13T17:26:49.028Z,6.03
2023-01-13T17:29:21.781Z,4.90
2023-01-13T17:31:51.370Z,3.08
2023-01-13T17:34:23.269Z,1.40
2023-01-13T17:36:49.759Z,6.63
2023-01-13T17:39:18.046Z,41.90
2023-01-13T17:41:45.926Z,18.02
2023-01-13T17:44:20.284Z,16.90
2023-01-13T17:46:46.974Z,10.95
2023-01-13T17:49:15.283Z,7.13
2023-01-13T17:51:42.104Z,10.25
2023-01-13T17:54:12.616Z,2.63
2023-01-13T17:56:42.654Z,3.42
2023-01-13T17:59:11.869Z,2.97
2023-01-13T18:01:39.080Z,4.68
2023-01-13T18:04:06.885Z,2.65
2023-01-13T18:06:33.714Z,1.60
2023-01-13T18:09:00.401Z,4.05
2023-01-13T18:11:27.646Z,3.55
2023-01-13T18:13:57.008Z,8.18
2023-01-13T18:16:29.783Z,15.90
2023-01-13T18:19:18.125Z,5.05
2023-01-13T18:22:03.933Z,2.92
2023-01-13T18:24:50.454Z,1.45
2023-01-13T18:27:19.663Z,0.90
2023-01-13T18:29:46.748Z,1.42
2023-01-13T18:32:14.012Z,1.33
2023-01-13T18:34:41.292Z,3.22
2023-01-13T18:37:10.203Z,1.33
2023-01-13T18:39:40.061Z,2.90
2023-01-13T18:42:27.423Z,1.63
2023-01-13T18:44:56.000Z,1.92
2023-01-13T18:47:24.853Z,2.83
2023-01-13T18:49:51.398Z,3.45
2023-01-13T18:52:18.209Z,2.25
2023-01-13T18:54:47.563Z,2.25
2023-01-13T18:57:17.101Z,1.50
2023-01-13T18:59:43.559Z,3.40
2023-01-13T19:02:19.240Z,20.67
2023-01-13T19:04:46.824Z,22.38
2023-01-13T19:07:22.228Z,12.82
2023-01-13T19:09:51.951Z,6.40
2023-01-13T19:12:27.835Z,2.10
2023-01-13T19:15:00.233Z,2.15
2023-01-13T19:19:56.206Z,2.05
2023-01-13T19:22:29.784Z,1.83
2023-01-13T19:25:00.318Z,4.05
2023-01-13T19:27:27.638Z,3.53
2023-01-13T19:29:57.920Z,3.50
2023-01-13T19:32:28.277Z,4.43
2023-01-13T19:34:59.523Z,4.97
2023-01-13T19:37:30.615Z,4.60
2023-01-13T19:39:58.563Z,3.88
2023-01-13T19:42:46.248Z,3.20
2023-01-13T19:45:26.929Z,3.50
2023-01-13T19:47:57.610Z,3.33
2023-01-13T19:50:24.743Z,3.75
2023-01-13T19:52:54.330Z,3.00
2023-01-13T19:55:21.212Z,2.40
2023-01-13T19:57:47.652Z,3.33
2023-01-13T20:00:20.653Z,3.50
2023-01-13T20:02:49.449Z,2.75
2023-01-13T20:05:21.121Z,4.75
2023-01-13T20:07:50.708Z,3.28
2023-01-13T20:10:19.103Z,3.03
2023-01-13T20:12:45.632Z,2.72
2023-01-13T20:15:12.273Z,2.00
2023-01-13T20:17:40.376Z,2.40
2023-01-13T20:20:07.978Z,2.70
2023-01-13T20:22:37.674Z,1.88
2023-01-13T20:25:06.778Z,2.25
2023-01-13T20:27:33.161Z,1.50
2023-01-13T20:30:01.997Z,2.40
2023-01-13T20:32:28.712Z,2.80
2023-01-13T20:34:55.176Z,3.55
2023-01-13T20:37:22.798Z,2.17
2023-01-13T20:39:49.267Z,2.70
2023-01-13T20:42:42.366Z,6.18
2023-01-13T20:45:09.332Z,3.33
2023-01-13T20:47:35.721Z,3.33
2023-01-13T20:50:02.426Z,2.40
2023-01-13T20:52:28.969Z,2.33
2023-01-13T20:55:00.546Z,2.13
2023-01-13T20:57:26.969Z,1.90
2023-01-13T20:59:53.379Z,2.25
2023-01-13T21:02:22.333Z,2.00
2023-01-13T21:04:51.443Z,2.17
2023-01-13T21:07:18.136Z,2.22
2023-01-13T21:09:44.639Z,2.05
2023-01-13T21:12:48.124Z,1.92
2023-01-13T21:15:17.228Z,2.20
2023-01-13T21:18:07.343Z,2.60
2023-01-13T21:20:35.209Z,2.22
2023-01-13T21:23:02.969Z,2.38
2023-01-13T21:25:30.978Z,2.22
2023-01-13T21:28:17.368Z,2.50
2023-01-13T21:30:44.671Z,2.10
2023-01-13T21:33:15.929Z,1.92
2023-01-13T21:35:42.474Z,1.52
2023-01-13T21:38:10.475Z,2.10
2023-01-13T21:40:39.481Z,1.67
2023-01-13T21:43:24.880Z,2.40
2023-01-13T21:46:10.091Z,2.60
2023-01-13T21:48:38.869Z,1.40
2023-01-13T21:51:08.446Z,1.90
2023-01-13T21:53:34.802Z,2.28
2023-01-13T21:56:03.616Z,2.30
2023-01-13T21:58:29.969Z,2.05
2023-01-13T22:00:56.600Z,1.88
2023-01-13T22:03:23.241Z,2.15
2023-01-13T22:05:55.515Z,1.52
2023-01-13T22:08:26.269Z,2.33
2023-01-13T22:10:59.309Z,1.73
2023-01-13T22:13:47.584Z,2.47
2023-01-13T22:16:14.433Z,4.68
2023-01-13T22:18:40.894Z,3.83
2023-01-13T22:21:11.001Z,4.60
2023-01-13T22:23:37.434Z,3.25
2023-01-13T22:26:05.314Z,2.15
2023-01-13T22:28:39.870Z,2.40
2023-01-13T22:31:21.181Z,2.33
2023-01-13T22:33:51.414Z,2.75
2023-01-13T22:36:21.407Z,2.35
2023-01-13T22:38:48.155Z,2.85
2023-01-13T22:41:14.682Z,4.72
2023-01-13T22:43:41.141Z,4.18
2023-01-13T22:46:12.303Z,2.60
2023-01-13T22:48:41.544Z,3.50
2023-01-13T22:51:14.091Z,3.47
2023-01-13T22:53:41.700Z,4.60
2023-01-13T22:56:11.941Z,5.90
2023-01-13T22:58:38.412Z,6.30
2023-01-13T23:01:10.804Z,4.13
2023-01-13T23:06:05.238Z,1.92
2023-01-13T23:08:33.692Z,1.40
2023-01-13T23:11:02.180Z,1.77
2023-01-13T23:13:29.100Z,1.60
2023-01-13T23:16:04.779Z,1.88
2023-01-13T23:18:31.638Z,2.17
2023-01-13T23:21:07.430Z,1.65
2023-01-13T23:23:34.549Z,1.88
2023-01-13T23:26:01.135Z,1.35
2023-01-13T23:28:27.630Z,1.63
2023-01-13T23:30:54.123Z,1.75
2023-01-13T23:33:23.256Z,1.33
2023-01-13T23:36:00.966Z,1.70
2023-01-13T23:38:28.593Z,1.52
2023-01-13T23:40:55.495Z,1.80
2023-01-13T23:43:22.992Z,1.60
2023-01-13T23:45:50.021Z,2.15
2023-01-13T23:48:16.826Z,2.13
2023-01-13T23:50:43.407Z,2.03
2023-01-13T23:53:12.346Z,1.67
2023-01-13T23:55:38.766Z,2.55
2023-01-13T23:58:05.142Z,3.15
